createdAt,value
2023-02-19T00:04:24.811Z,9.57
2023-02-19T00:06:53.865Z,9.47
2023-02-19T00:13:59.851Z,8.87
2023-02-19T00:16:36.618Z,10.60
2023-02-19T00:19:09.483Z,10.40
2023-02-19T00:21:36.960Z,9.60
2023-02-19T00:24:07.279Z,9.83
2023-02-19T00:26:35.687Z,10.70
2023-02-19T00:29:03.307Z,10.83
2023-02-19T00:31:34.294Z,11.40
2023-02-19T00:34:06.048Z,11.40
2023-02-19T00:36:36.862Z,11.37
2023-02-19T00:39:06.277Z,12.83
2023-02-19T00:41:34.996Z,13.73
2023-02-19T00:44:06.571Z,11.67
2023-02-19T00:46:46.765Z,11.50
2023-02-19T00:49:23.253Z,11.57
2023-02-19T00:51:53.546Z,10.97
2023-02-19T00:54:22.905Z,12.47
2023-02-19T00:56:51.024Z,12.00
2023-02-19T00:59:18.439Z,11.87
2023-02-19T01:02:42.099Z,12.77
2023-02-19T01:05:28.209Z,12.67
2023-02-19T01:07:58.078Z,12.47
2023-02-19T01:10:25.477Z,13.07
2023-02-19T01:17:18.018Z,13.10
2023-02-19T01:19:45.182Z,14.03
2023-02-19T01:22:13.072Z,15.10
2023-02-19T01:24:40.431Z,14.97
2023-02-19T01:27:07.757Z,18.40
2023-02-19T01:29:35.232Z,14.60
2023-02-19T01:32:02.960Z,14.87
2023-02-19T01:34:33.561Z,18.00
2023-02-19T01:37:01.023Z,16.03
2023-02-19T01:39:28.498Z,14.80
2023-02-19T01:41:58.970Z,15.20
2023-02-19T01:44:29.037Z,16.27
2023-02-19T01:46:59.224Z,14.30
2023-02-19T01:49:49.080Z,16.93
2023-02-19T02:04:45.984Z,16.43
2023-02-19T02:12:46.291Z,19.17
2023-02-19T02:15:16.692Z,14.70
2023-02-19T02:18:21.307Z,17.30
2023-02-19T02:21:46.526Z,16.87
2023-02-19T02:24:50.296Z,18.03
2023-02-19T02:27:48.213Z,16.77
2023-02-19T02:30:37.922Z,17.80
2023-02-19T02:33:20.231Z,15.33
2023-02-19T02:35:58.261Z,15.00
2023-02-19T02:38:32.176Z,16.73
2023-02-19T02:41:00.804Z,14.97
2023-02-19T02:43:28.890Z,16.30
2023-02-19T02:45:56.954Z,16.20
2023-02-19T02:48:38.950Z,19.63
2023-02-19T02:51:43.793Z,16.57
2023-02-19T02:54:37.756Z,16.37
2023-02-19T02:57:09.522Z,15.13
2023-02-19T02:59:40.400Z,13.40
2023-02-19T03:02:30.486Z,13.40
2023-02-19T03:05:25.436Z,13.27
2023-02-19T03:08:15.622Z,13.57
2023-02-19T03:10:52.545Z,13.23
2023-02-19T03:13:55.952Z,11.43
2023-02-19T03:16:55.140Z,14.37
2023-02-19T03:19:27.566Z,11.50
2023-02-19T03:26:04.693Z,10.47
2023-02-19T03:28:54.949Z,11.47
2023-02-19T03:31:28.514Z,10.93
2023-02-19T03:34:03.011Z,12.77
2023-02-19T03:36:48.698Z,13.00
2023-02-19T03:39:22.980Z,15.70
2023-02-19T03:41:56.225Z,10.50
2023-02-19T03:45:08.013Z,13.23
2023-02-19T03:47:58.031Z,11.97
2023-02-19T03:51:13.320Z,12.30
2023-02-19T03:58:15.161Z,12.87
2023-02-19T04:04:53.388Z,11.53
2023-02-19T04:07:24.171Z,9.57
2023-02-19T04:09:52.519Z,11.63
2023-02-19T04:12:22.038Z,12.60
2023-02-19T04:15:18.116Z,10.13
2023-02-19T04:17:56.480Z,10.87
2023-02-19T04:20:29.885Z,10.53
2023-02-19T04:22:58.560Z,13.17
2023-02-19T04:25:29.373Z,10.67
2023-02-19T04:27:56.929Z,10.03
2023-02-19T04:30:24.355Z,10.70
2023-02-19T04:32:51.703Z,13.13
2023-02-19T04:35:19.045Z,12.33
2023-02-19T04:37:48.816Z,12.60
2023-02-19T04:40:16.175Z,12.47
2023-02-19T04:42:43.435Z,10.80
2023-02-19T04:45:10.640Z,12.60
2023-02-19T04:47:38.077Z,10.13
2023-02-19T04:50:06.265Z,9.70
2023-02-19T04:52:33.607Z,15.60
2023-02-19T04:55:01.645Z,10.10
2023-02-19T05:01:29.031Z,9.03
2023-02-19T05:12:16.484Z,10.87
2023-02-19T05:14:43.855Z,13.23
2023-02-19T05:17:11.240Z,8.53
2023-02-19T05:19:38.556Z,10.07
2023-02-19T05:22:05.851Z,11.47
2023-02-19T05:24:33.179Z,10.80
2023-02-19T05:27:00.840Z,14.20
2023-02-19T05:29:31.404Z,9.43
2023-02-19T05:31:58.790Z,12.13
2023-02-19T05:34:26.223Z,10.77
2023-02-19T05:36:53.540Z,10.47
2023-02-19T05:39:21.013Z,7.53
2023-02-19T05:41:50.745Z,13.93
2023-02-19T05:44:17.822Z,8.47
2023-02-19T05:46:45.409Z,9.27
2023-02-19T05:49:12.945Z,9.20
2023-02-19T05:51:40.361Z,10.83
2023-02-19T05:54:07.809Z,10.07
2023-02-19T05:56:42.860Z,9.37
2023-02-19T05:59:26.089Z,9.03
2023-02-19T06:01:55.060Z,7.43
2023-02-19T06:04:23.608Z,9.70
2023-02-19T06:06:51.120Z,9.97
2023-02-19T06:09:18.719Z,8.60
2023-02-19T06:11:46.126Z,8.67
2023-02-19T06:14:15.327Z,9.83
2023-02-19T06:16:43.201Z,9.80
2023-02-19T06:19:10.677Z,8.47
2023-02-19T06:21:38.028Z,11.23
2023-02-19T06:24:08.483Z,7.37
2023-02-19T06:26:36.281Z,7.87
2023-02-19T06:29:04.279Z,10.00
2023-02-19T06:31:31.817Z,10.53
2023-02-19T06:33:59.495Z,9.13
2023-02-19T06:36:26.926Z,10.20
2023-02-19T06:38:54.324Z,9.77
2023-02-19T06:41:21.584Z,11.37
2023-02-19T06:43:48.812Z,9.93
2023-02-19T06:46:16.277Z,11.33
2023-02-19T06:48:45.715Z,9.70
2023-02-19T06:51:19.741Z,10.70
2023-02-19T06:53:47.245Z,6.40
2023-02-19T06:56:46.946Z,8.00
2023-02-19T06:59:19.441Z,9.53
2023-02-19T07:01:47.508Z,9.47
2023-02-19T07:04:16.099Z,8.20
2023-02-19T07:15:24.238Z,9.97
2023-02-19T07:17:52.207Z,11.87
2023-02-19T07:20:19.995Z,9.40
2023-02-19T07:22:47.549Z,11.23
2023-02-19T07:25:15.161Z,10.63
2023-02-19T07:27:42.613Z,11.30
2023-02-19T07:30:11.997Z,9.33
2023-02-19T07:57:44.603Z,10.87
2023-02-19T08:00:12.697Z,9.23
2023-02-19T08:03:01.504Z,12.93
2023-02-19T08:05:32.749Z,13.57
2023-02-19T08:08:01.523Z,12.77
2023-02-19T08:10:47.373Z,9.27
2023-02-19T08:13:20.083Z,10.43
2023-02-19T08:16:17.312Z,12.20
2023-02-19T08:18:49.373Z,8.87
2023-02-19T08:21:21.035Z,11.43
2023-02-19T08:23:50.908Z,12.67
2023-02-19T08:26:19.164Z,11.10
2023-02-19T08:28:46.531Z,9.93
2023-02-19T08:31:14.479Z,12.77
2023-02-19T08:33:44.853Z,12.97
2023-02-19T08:36:12.596Z,12.30
2023-02-19T08:38:40.140Z,8.57
2023-02-19T08:41:14.152Z,10.07
2023-02-19T08:43:44.257Z,8.47
2023-02-19T08:46:15.743Z,11.17
2023-02-19T08:48:43.037Z,9.10
2023-02-19T08:51:13.149Z,6.60
2023-02-19T08:53:41.939Z,9.97
2023-02-19T08:56:16.564Z,9.77
2023-02-19T08:58:45.158Z,9.03
2023-02-19T09:01:16.826Z,8.57
2023-02-19T09:03:44.460Z,6.83
2023-02-19T09:06:21.534Z,7.63
2023-02-19T09:08:49.033Z,9.23
2023-02-19T09:11:16.474Z,7.37
2023-02-19T09:13:44.853Z,6.57
2023-02-19T09:16:12.530Z,8.60
2023-02-19T09:18:39.826Z,6.97
2023-02-19T09:21:11.211Z,7.23
2023-02-19T09:23:38.852Z,9.30
2023-02-19T09:26:11.650Z,7.07
2023-02-19T09:41:32.079Z,10.33
2023-02-19T09:44:06.270Z,9.43
2023-02-19T09:51:23.731Z,8.77
2023-02-19T09:53:52.703Z,7.00
2023-02-19T09:56:22.405Z,8.70
2023-02-19T09:58:54.715Z,7.97
2023-02-19T10:01:27.513Z,8.90
2023-02-19T10:03:55.184Z,9.93
2023-02-19T10:07:23.296Z,7.23
2023-02-19T10:11:05.515Z,8.20
2023-02-19T10:13:45.746Z,8.83
2023-02-19T10:16:19.616Z,6.70
2023-02-19T10:23:52.817Z,6.97
2023-02-19T10:26:20.804Z,7.40
2023-02-19T10:29:07.122Z,6.67
2023-02-19T10:31:34.766Z,7.87
2023-02-19T10:34:03.109Z,12.63
2023-02-19T10:36:45.549Z,10.00
2023-02-19T10:39:42.708Z,10.37
2023-02-19T10:42:23.942Z,9.80
2023-02-19T10:45:02.089Z,10.23
2023-02-19T10:47:33.286Z,11.23
2023-02-19T10:50:04.378Z,10.27
2023-02-19T10:52:36.911Z,10.53
2023-02-19T10:55:34.540Z,10.07
2023-02-19T10:58:28.153Z,13.57
2023-02-19T11:01:17.740Z,11.03
2023-02-19T11:03:46.463Z,9.63
2023-02-19T11:06:17.788Z,10.33
2023-02-19T11:08:53.570Z,12.00
2023-02-19T11:11:39.681Z,11.37
2023-02-19T11:18:32.325Z,11.20
2023-02-19T11:21:08.562Z,10.70
2023-02-19T11:23:47.083Z,11.23
2023-02-19T11:26:28.771Z,9.63
2023-02-19T11:30:52.846Z,11.00
2023-02-19T11:33:27.582Z,8.33
2023-02-19T11:36:30.035Z,8.07
2023-02-19T11:39:03.674Z,7.50
2023-02-19T11:42:00.639Z,8.40
2023-02-19T11:48:37.453Z,5.17
2023-02-19T11:51:36.004Z,6.53
2023-02-19T11:58:42.363Z,6.43
2023-02-19T12:01:59.713Z,5.13
2023-02-19T12:04:42.218Z,5.00
2023-02-19T12:15:51.282Z,4.37
2023-02-19T12:18:49.212Z,6.30
2023-02-19T12:21:57.253Z,9.83
2023-02-19T12:25:07.407Z,10.83
2023-02-19T12:27:42.596Z,13.10
2023-02-19T12:30:19.133Z,12.20
2023-02-19T12:33:43.661Z,11.20
2023-02-19T12:36:50.875Z,11.10
2023-02-19T12:40:21.827Z,10.83
2023-02-19T12:43:21.342Z,11.23
2023-02-19T12:46:03.121Z,9.50
2023-02-19T12:48:39.788Z,10.67
2023-02-19T12:51:20.418Z,9.67
2023-02-19T12:54:03.029Z,8.60
2023-02-19T12:56:39.557Z,8.80
2023-02-19T12:59:27.053Z,9.00
2023-02-19T13:02:21.209Z,7.83
2023-02-19T13:05:03.520Z,7.40
2023-02-19T13:07:48.442Z,8.23
2023-02-19T13:10:46.465Z,7.20
2023-02-19T13:13:30.982Z,7.13
2023-02-19T13:16:15.098Z,10.03
2023-02-19T13:18:50.360Z,8.10
2023-02-19T13:21:41.718Z,6.83
2023-02-19T13:30:18.722Z,6.13
2023-02-19T13:37:51.466Z,5.73
2023-02-19T13:44:29.797Z,4.10
2023-02-19T13:46:58.150Z,5.63
2023-02-19T13:49:28.725Z,3.70
2023-02-19T13:52:03.445Z,3.73
2023-02-19T13:54:36.438Z,4.60
2023-02-19T13:57:32.620Z,3.60
2023-02-19T14:00:01.030Z,3.27
2023-02-19T14:02:35.607Z,3.70
2023-02-19T14:05:11.578Z,3.63
2023-02-19T14:07:54.861Z,2.80
2023-02-19T14:10:55.822Z,3.00
2023-02-19T14:13:48.010Z,3.97
2023-02-19T14:16:47.366Z,6.03
2023-02-19T14:19:36.735Z,3.90
2023-02-19T14:22:45.850Z,4.87
2023-02-19T14:25:33.168Z,3.10
2023-02-19T14:28:33.627Z,4.57
2023-02-19T14:31:35.472Z,4.70
2023-02-19T14:34:25.360Z,5.27
2023-02-19T14:37:01.294Z,4.83
2023-02-19T14:39:41.382Z,5.23
2023-02-19T14:42:23.242Z,3.17
2023-02-19T14:45:01.521Z,3.60
2023-02-19T14:47:35.124Z,2.83
2023-02-19T14:50:09.781Z,3.47
2023-02-19T14:52:44.751Z,4.60
2023-02-19T14:55:28.091Z,2.47
2023-02-19T14:57:58.599Z,3.07
2023-02-19T15:00:37.642Z,4.97
2023-02-19T15:03:07.055Z,2.47
2023-02-19T15:05:37.697Z,2.63
2023-02-19T15:08:15.705Z,3.03
2023-02-19T15:10:44.045Z,2.73
2023-02-19T15:13:17.667Z,3.20
2023-02-19T15:15:46.747Z,2.20
2023-02-19T15:18:28.393Z,2.50
2023-02-19T15:21:06.004Z,1.90
2023-02-19T15:23:36.096Z,2.47
2023-02-19T15:26:04.275Z,1.67
2023-02-19T15:28:34.611Z,3.07
2023-02-19T15:31:02.419Z,2.10
2023-02-19T15:33:29.826Z,2.20
2023-02-19T15:36:05.953Z,1.67
2023-02-19T15:38:34.205Z,2.10
2023-02-19T15:41:01.672Z,3.60
2023-02-19T15:43:44.590Z,2.97
2023-02-19T15:46:24.913Z,2.20
2023-02-19T15:49:19.288Z,2.07
2023-02-19T15:51:57.080Z,3.50
2023-02-19T15:54:36.225Z,1.60
2023-02-19T15:57:17.510Z,2.77
2023-02-19T15:59:54.066Z,2.60
2023-02-19T16:02:22.013Z,3.87
2023-02-19T16:04:49.542Z,3.30
2023-02-19T16:07:35.193Z,3.23
2023-02-19T16:10:23.138Z,3.57
2023-02-19T16:13:06.792Z,3.87
2023-02-19T16:15:35.270Z,3.73
2023-02-19T16:18:02.943Z,4.00
2023-02-19T16:20:34.997Z,3.10
2023-02-19T16:23:11.330Z,4.10
2023-02-19T16:25:45.267Z,3.87
2023-02-19T16:28:23.160Z,2.93
2023-02-19T16:31:32.327Z,2.90
2023-02-19T16:34:32.400Z,2.80
2023-02-19T16:37:05.783Z,2.80
2023-02-19T16:40:16.808Z,2.63
2023-02-19T16:42:50.447Z,2.97
2023-02-19T16:45:18.560Z,4.07
2023-02-19T16:47:51.303Z,3.67
2023-02-19T16:50:56.136Z,2.43
2023-02-19T16:53:25.372Z,2.60
2023-02-19T16:55:52.874Z,2.60
2023-02-19T16:58:20.432Z,2.30
2023-02-19T17:00:47.850Z,3.47
2023-02-19T17:03:19.932Z,2.33
2023-02-19T17:05:50.964Z,2.33
2023-02-19T17:08:34.204Z,2.40
2023-02-19T17:11:11.725Z,2.43
2023-02-19T17:13:39.825Z,1.80
2023-02-19T17:16:08.163Z,1.83
2023-02-19T17:18:35.552Z,1.83
2023-02-19T17:21:15.552Z,1.70
2023-02-19T17:23:42.678Z,2.73
2023-02-19T17:26:22.146Z,1.87
2023-02-19T17:28:50.226Z,2.47
2023-02-19T17:31:55.222Z,1.50
2023-02-19T17:34:22.495Z,1.30
2023-02-19T17:36:49.926Z,1.77
2023-02-19T17:39:17.273Z,1.83
2023-02-19T17:41:44.754Z,3.07
2023-02-19T17:44:12.440Z,2.07
2023-02-19T17:46:40.216Z,2.93
2023-02-19T17:49:08.016Z,2.30
2023-02-19T17:51:36.057Z,2.30
2023-02-19T17:54:03.492Z,1.87
2023-02-19T18:00:40.668Z,1.87
2023-02-19T18:03:08.158Z,1.47
2023-02-19T18:05:35.374Z,1.40
2023-02-19T18:08:02.719Z,1.47
2023-02-19T18:10:30.619Z,1.40
2023-02-19T18:12:59.372Z,2.00
2023-02-19T18:16:59.495Z,1.40
2023-02-19T18:28:04.451Z,1.53
2023-02-19T18:30:31.694Z,2.87
2023-02-19T18:32:59.434Z,1.60
2023-02-19T18:35:26.910Z,1.40
2023-02-19T18:37:55.258Z,2.30
2023-02-19T18:40:26.176Z,1.40
2023-02-19T18:42:54.088Z,1.33
2023-02-19T18:45:21.796Z,1.40
2023-02-19T18:47:50.890Z,1.30
2023-02-19T18:50:20.823Z,2.50
2023-02-19T18:52:48.457Z,2.60
2023-02-19T18:55:16.118Z,2.13
2023-02-19T18:57:44.243Z,1.70
2023-02-19T19:00:20.819Z,1.90
2023-02-19T19:02:50.499Z,1.40
2023-02-19T19:05:23.287Z,2.43
2023-02-19T19:07:56.924Z,1.40
2023-02-19T19:10:24.635Z,2.23
2023-02-19T19:12:52.507Z,3.50
2023-02-19T19:15:22.848Z,2.77
2023-02-19T19:17:53.629Z,1.80
2023-02-19T19:20:27.043Z,1.80
2023-02-19T19:22:54.942Z,2.00
2023-02-19T19:25:23.439Z,2.20
2023-02-19T19:27:54.784Z,1.90
2023-02-19T19:30:22.319Z,1.60
2023-02-19T19:32:52.394Z,1.60
2023-02-19T19:35:21.473Z,1.50
2023-02-19T19:37:50.267Z,1.70
2023-02-19T19:40:18.891Z,1.60
2023-02-19T19:42:47.252Z,2.67
2023-02-19T19:45:15.537Z,1.83
2023-02-19T19:47:46.082Z,2.87
2023-02-19T19:50:14.771Z,2.70
2023-02-19T19:52:42.530Z,2.13
2023-02-19T19:59:33.395Z,1.50
2023-02-19T20:06:10.144Z,1.50
2023-02-19T20:08:37.541Z,1.63
2023-02-19T20:11:05.179Z,1.60
2023-02-19T20:13:34.067Z,1.43
2023-02-19T20:16:01.598Z,2.50
2023-02-19T20:18:31.238Z,2.80
2023-02-19T20:21:00.415Z,3.93
2023-02-19T20:23:28.849Z,2.70
2023-02-19T20:25:59.327Z,2.80
2023-02-19T20:28:26.756Z,2.00
2023-02-19T20:30:57.919Z,1.70
2023-02-19T20:33:25.811Z,1.80
2023-02-19T20:35:56.060Z,2.63
2023-02-19T20:38:23.573Z,1.77
2023-02-19T20:40:51.016Z,3.23
2023-02-19T20:47:28.566Z,2.50
2023-02-19T20:49:55.881Z,2.40
2023-02-19T20:52:25.240Z,3.23
2023-02-19T20:54:56.958Z,2.00
2023-02-19T20:57:24.926Z,2.13
2023-02-19T20:59:52.204Z,3.33
2023-02-19T21:02:29.427Z,2.40
2023-02-19T21:04:58.541Z,3.40
2023-02-19T21:07:26.438Z,3.27
2023-02-19T21:09:54.722Z,2.60
2023-02-19T21:12:23.381Z,2.37
2023-02-19T21:14:50.880Z,2.07
2023-02-19T21:17:24.214Z,1.93
2023-02-19T21:19:51.774Z,1.67
2023-02-19T21:22:19.031Z,2.47
2023-02-19T21:24:49.925Z,2.63
2023-02-19T21:27:17.217Z,4.07
2023-02-19T21:29:44.810Z,4.10
2023-02-19T21:32:15.232Z,3.63
2023-02-19T21:34:43.244Z,3.80
2023-02-19T21:37:13.328Z,3.13
2023-02-19T21:39:43.123Z,4.00
2023-02-19T21:42:10.657Z,2.70
2023-02-19T21:44:38.220Z,4.17
2023-02-19T21:47:05.900Z,3.00
2023-02-19T21:49:36.934Z,2.73
2023-02-19T21:52:04.539Z,2.13
2023-02-19T21:54:32.297Z,2.60
2023-02-19T21:57:03.706Z,3.20
2023-02-19T21:59:31.626Z,3.03
2023-02-19T22:02:01.531Z,3.43
2023-02-19T22:04:28.971Z,2.70
2023-02-19T22:06:59.865Z,3.10
2023-02-19T22:09:27.603Z,4.17
2023-02-19T22:11:54.881Z,3.47
2023-02-19T22:14:22.389Z,3.53
2023-02-19T22:16:50.430Z,3.80
2023-02-19T22:19:18.667Z,4.60
2023-02-19T22:21:46.121Z,4.57
2023-02-19T22:24:20.475Z,4.53
2023-02-19T22:30:48.247Z,4.17
2023-02-19T22:33:15.841Z,4.17
2023-02-19T22:35:43.318Z,4.20
2023-02-19T22:38:10.940Z,6.10
2023-02-19T22:40:38.252Z,6.33
2023-02-19T22:43:05.478Z,4.93
2023-02-19T22:45:32.825Z,5.57
2023-02-19T22:48:00.021Z,5.67
2023-02-19T22:50:27.312Z,5.37
2023-02-19T22:52:55.238Z,6.37
2023-02-19T22:55:25.432Z,5.97
2023-02-19T22:57:52.668Z,5.27
2023-02-19T23:00:25.306Z,7.20
2023-02-19T23:02:52.552Z,6.33
2023-02-19T23:05:19.973Z,8.83
2023-02-19T23:07:47.377Z,7.33
2023-02-19T23:10:14.827Z,7.57
2023-02-19T23:12:42.673Z,7.67
2023-02-19T23:15:11.099Z,8.70
2023-02-19T23:17:38.272Z,7.73
2023-02-19T23:20:06.334Z,8.80
2023-02-19T23:22:35.415Z,7.23
2023-02-19T23:25:03.587Z,7.47
2023-02-19T23:27:30.952Z,9.03
2023-02-19T23:29:58.398Z,9.30
2023-02-19T23:32:25.862Z,9.33
2023-02-19T23:34:53.407Z,11.27
2023-02-19T23:37:21.149Z,9.47
2023-02-19T23:39:48.426Z,8.00
2023-02-19T23:42:17.024Z,9.80
2023-02-19T23:44:47.490Z,8.67
2023-02-19T23:47:14.891Z,7.90
2023-02-19T23:49:42.156Z,9.60
2023-02-19T23:52:10.528Z,9.53
2023-02-19T23:54:37.812Z,9.10
2023-02-19T23:57:05.280Z,10.67
2023-02-19T23:59:32.581Z,10.60
